createdAt,value
2017-12-03T00:00:22.280Z,1008.48
2017-12-03T00:01:28.809Z,1008.52
2017-12-03T00:02:34.888Z,1008.48
2017-12-03T00:03:40.346Z,1008.47
2017-12-03T00:04:46.356Z,1008.45
2017-12-03T00:05:52.411Z,1008.54
2017-12-03T00:06:58.903Z,1008.42
2017-12-03T00:08:04.433Z,1008.50
2017-12-03T00:09:10.938Z,1008.49
2017-12-03T00:10:16.958Z,1008.45
2017-12-03T00:11:22.993Z,1008.41
2017-12-03T00:12:28.509Z,1008.41
2017-12-03T00:13:35.116Z,1008.47
2017-12-03T00:14:41.113Z,1008.42
2017-12-03T00:15:46.586Z,1008.45
2017-12-03T00:16:52.631Z,1008.51
2017-12-03T00:17:58.618Z,1008.42
2017-12-03T00:19:04.643Z,1008.43
2017-12-03T00:20:11.154Z,1008.38
2017-12-03T00:21:16.709Z,1008.30
2017-12-03T00:22:22.718Z,1008.35
2017-12-03T00:23:28.728Z,1008.33
2017-12-03T00:24:35.244Z,1008.32
2017-12-03T00:25:40.781Z,1008.41
2017-12-03T00:26:47.313Z,1008.40
2017-12-03T00:27:53.324Z,1008.45
2017-12-03T00:28:58.831Z,1008.44
2017-12-03T00:30:04.861Z,1008.42
2017-12-03T00:31:10.910Z,1008.43
2017-12-03T00:32:17.402Z,1008.34
2017-12-03T00:33:23.427Z,1008.43
2017-12-03T00:34:28.932Z,1008.43
2017-12-03T00:35:34.967Z,1008.42
2017-12-03T00:36:41.022Z,1008.42
2017-12-03T00:37:47.002Z,1008.49
2017-12-03T00:38:53.116Z,1008.47
2017-12-03T00:39:59.539Z,1008.41
2017-12-03T00:41:05.576Z,1008.35
2017-12-03T00:42:11.078Z,1008.31
2017-12-03T00:43:17.596Z,1008.40
2017-12-03T00:44:23.105Z,1008.36
2017-12-03T00:45:29.653Z,1008.36
2017-12-03T00:46:35.206Z,1008.33
2017-12-03T00:47:41.185Z,1008.39
2017-12-03T00:48:47.195Z,1008.33
2017-12-03T00:49:53.724Z,1008.38
2017-12-03T00:50:59.249Z,1008.35
2017-12-03T00:52:05.278Z,1008.32
2017-12-03T00:53:11.774Z,1008.41
2017-12-03T00:54:17.789Z,1008.32
2017-12-03T00:55:23.346Z,1008.32
2017-12-03T00:56:29.871Z,1008.26
2017-12-03T00:57:35.879Z,1008.26
2017-12-03T00:58:41.390Z,1008.34
2017-12-03T00:59:47.903Z,1008.32
2017-12-03T01:00:53.933Z,1008.28
2017-12-03T01:01:59.982Z,1008.29
2017-12-03T01:03:05.479Z,1008.29
2017-12-03T01:04:11.998Z,1008.33
2017-12-03T01:05:17.513Z,1008.41
2017-12-03T01:06:23.564Z,1008.38
2017-12-03T01:07:30.059Z,1008.39
2017-12-03T01:08:35.583Z,1008.33
2017-12-03T01:09:41.604Z,1008.32
2017-12-03T01:10:48.115Z,1008.28
2017-12-03T01:11:54.154Z,1008.31
2017-12-03T01:12:59.656Z,1008.38
2017-12-03T01:14:06.178Z,1008.41
2017-12-03T01:15:12.202Z,1008.36
2017-12-03T01:16:17.728Z,1008.33
2017-12-03T01:17:23.744Z,1008.33
2017-12-03T01:18:29.757Z,1008.39
2017-12-03T01:19:36.290Z,1008.32
2017-12-03T01:20:41.814Z,1008.24
2017-12-03T01:21:47.863Z,1008.29
2017-12-03T01:22:54.052Z,1008.30
2017-12-03T01:24:00.355Z,1008.31
2017-12-03T01:25:06.396Z,1008.25
2017-12-03T01:26:11.932Z,1008.37
2017-12-03T01:27:17.947Z,1008.38
2017-12-03T01:28:24.444Z,1008.28
2017-12-03T01:29:29.976Z,1008.35
2017-12-03T01:30:36.475Z,1008.34
2017-12-03T01:31:42.033Z,1008.31
2017-12-03T01:32:48.036Z,1008.30
2017-12-03T01:33:54.559Z,1008.26
2017-12-03T01:35:00.588Z,1008.21
2017-12-03T01:36:06.097Z,1008.24
2017-12-03T01:37:12.629Z,1008.24
2017-12-03T01:38:18.144Z,1008.31
2017-12-03T01:39:24.657Z,1008.26
2017-12-03T01:40:30.700Z,1008.35
2017-12-03T01:41:36.730Z,1008.31
2017-12-03T01:42:42.759Z,1008.31
2017-12-03T01:43:48.737Z,1008.33
2017-12-03T01:44:54.271Z,1008.33
2017-12-03T01:46:00.821Z,1008.29
2017-12-03T01:47:06.820Z,1008.30
2017-12-03T01:48:12.322Z,1008.32
2017-12-03T01:49:18.868Z,1008.35
2017-12-03T01:50:24.869Z,1008.36
2017-12-03T01:51:30.400Z,1008.31
2017-12-03T01:52:36.410Z,1008.35
2017-12-03T01:53:42.432Z,1008.21
2017-12-03T01:54:48.452Z,1008.26
2017-12-03T01:55:54.472Z,1008.24
2017-12-03T01:57:00.512Z,1008.28
2017-12-03T01:58:06.511Z,1008.21
2017-12-03T01:59:12.543Z,1008.25
2017-12-03T02:00:18.542Z,1008.20
2017-12-03T02:01:25.136Z,1008.23
2017-12-03T02:02:30.582Z,1008.14
2017-12-03T02:03:37.115Z,1008.21
2017-12-03T02:04:42.616Z,1008.13
2017-12-03T02:05:48.632Z,1008.19
2017-12-03T02:06:54.680Z,1008.14
2017-12-03T02:08:01.175Z,1008.22
2017-12-03T02:09:06.712Z,1008.20
2017-12-03T02:10:12.714Z,1008.18
2017-12-03T02:11:19.248Z,1008.09
2017-12-03T02:12:25.742Z,1008.11
2017-12-03T02:13:31.263Z,1008.09
2017-12-03T02:14:36.776Z,1008.16
2017-12-03T02:15:43.290Z,1008.08
2017-12-03T02:16:48.852Z,1008.18
2017-12-03T02:17:54.846Z,1008.06
2017-12-03T02:19:01.368Z,1008.04
2017-12-03T02:20:06.889Z,1008.06
2017-12-03T02:21:13.380Z,1008.09
2017-12-03T02:22:19.447Z,1008.15
2017-12-03T02:23:24.932Z,1008.06
2017-12-03T02:24:31.449Z,1007.99
2017-12-03T02:25:36.985Z,1008.03
2017-12-03T02:26:43.522Z,1008.10
2017-12-03T02:27:48.997Z,1007.97
2017-12-03T02:28:55.517Z,1007.97
2017-12-03T02:30:01.057Z,1007.97
2017-12-03T02:31:07.140Z,1007.97
2017-12-03T02:32:13.592Z,1007.91
2017-12-03T02:33:19.596Z,1007.99
2017-12-03T02:34:25.168Z,1008.03
2017-12-03T02:35:31.680Z,1007.99
2017-12-03T02:36:37.631Z,1007.94
2017-12-03T02:37:43.685Z,1007.93
2017-12-03T02:38:49.188Z,1008.05
2017-12-03T02:39:55.701Z,1007.92
2017-12-03T02:41:01.741Z,1007.99
2017-12-03T02:42:07.246Z,1007.98
2017-12-03T02:43:13.784Z,1007.99
2017-12-03T02:44:19.330Z,1007.89
2017-12-03T02:45:25.294Z,1007.93
2017-12-03T02:46:31.309Z,1007.93
2017-12-03T02:47:37.342Z,1007.99
2017-12-03T02:48:43.367Z,1007.90
2017-12-03T02:49:49.372Z,1008.05
2017-12-03T02:50:55.381Z,1008.00
2017-12-03T02:52:01.390Z,1008.06
2017-12-03T02:53:07.442Z,1007.98
2017-12-03T02:54:13.934Z,1007.97
2017-12-03T02:55:19.449Z,1008.03
2017-12-03T02:56:26.001Z,1007.99
2017-12-03T02:57:31.497Z,1007.93
2017-12-03T02:58:38.020Z,1007.96
2017-12-03T02:59:44.037Z,1007.90
2017-12-03T03:00:50.044Z,1007.95
2017-12-03T03:01:56.065Z,1007.86
2017-12-03T03:03:01.608Z,1007.86
2017-12-03T03:04:08.117Z,1007.90
2017-12-03T03:05:13.627Z,1007.95
2017-12-03T03:06:20.142Z,1007.95
2017-12-03T03:07:25.680Z,1007.90
2017-12-03T03:08:31.703Z,1007.99
2017-12-03T03:09:37.697Z,1007.97
2017-12-03T03:10:43.736Z,1008.03
2017-12-03T03:11:50.232Z,1007.99
2017-12-03T03:12:56.273Z,1007.94
2017-12-03T03:14:01.792Z,1008.02
2017-12-03T03:15:07.826Z,1007.97
2017-12-03T03:16:13.813Z,1007.93
2017-12-03T03:17:19.857Z,1007.94
2017-12-03T03:18:25.895Z,1008.00
2017-12-03T03:19:32.385Z,1007.88
2017-12-03T03:20:38.380Z,1007.90
2017-12-03T03:21:43.930Z,1007.87
2017-12-03T03:22:50.443Z,1007.86
2017-12-03T03:23:55.980Z,1007.89
2017-12-03T03:25:01.989Z,1007.87
2017-12-03T03:26:08.005Z,1007.93
2017-12-03T03:27:14.022Z,1007.93
2017-12-03T03:28:20.532Z,1007.94
2017-12-03T03:29:26.082Z,1007.91
2017-12-03T03:30:32.601Z,1007.83
2017-12-03T03:31:38.111Z,1007.77
2017-12-03T03:32:44.641Z,1007.78
2017-12-03T03:33:50.168Z,1007.82
2017-12-03T03:34:56.671Z,1007.91
2017-12-03T03:36:02.202Z,1007.83
2017-12-03T03:37:08.203Z,1007.85
2017-12-03T03:38:14.230Z,1007.91
2017-12-03T03:39:20.279Z,1007.90
2017-12-03T03:40:26.799Z,1007.87
2017-12-03T03:41:32.284Z,1007.93
2017-12-03T03:42:38.305Z,1007.94
2017-12-03T03:43:44.347Z,1007.96
2017-12-03T03:44:50.386Z,1007.95
2017-12-03T03:45:56.878Z,1007.90
2017-12-03T03:47:02.418Z,1007.90
2017-12-03T03:48:08.450Z,1007.93
2017-12-03T03:49:14.958Z,1007.93
2017-12-03T03:50:20.462Z,1007.92
2017-12-03T03:51:26.981Z,1007.97
2017-12-03T03:52:33.029Z,1007.95
2017-12-03T03:53:39.102Z,1007.92
2017-12-03T03:54:44.582Z,1007.91
2017-12-03T03:55:51.111Z,1007.95
2017-12-03T03:56:56.581Z,1007.96
2017-12-03T03:58:02.601Z,1007.93
2017-12-03T03:59:08.612Z,1007.88
2017-12-03T04:00:14.664Z,1007.95
2017-12-03T04:01:21.127Z,1007.91
2017-12-03T04:02:26.674Z,1007.91
2017-12-03T04:03:32.686Z,1007.88
2017-12-03T04:04:39.215Z,1007.86
2017-12-03T04:05:44.746Z,1007.91
2017-12-03T04:06:50.761Z,1007.90
2017-12-03T04:07:56.752Z,1007.93
2017-12-03T04:09:02.779Z,1007.92
2017-12-03T04:10:08.804Z,1007.80
2017-12-03T04:11:15.307Z,1007.96
2017-12-03T04:12:21.306Z,1007.90
2017-12-03T04:13:27.320Z,1007.96
2017-12-03T04:14:33.345Z,1007.95
2017-12-03T04:15:39.370Z,1007.87
2017-12-03T04:16:45.370Z,1007.88
2017-12-03T04:17:51.390Z,1007.88
2017-12-03T04:18:57.397Z,1007.87
2017-12-03T04:20:02.958Z,1007.92
2017-12-03T04:21:09.428Z,1007.92
2017-12-03T04:22:14.950Z,1008.10
2017-12-03T04:23:21.459Z,1008.05
2017-12-03T04:24:27.468Z,1008.02
2017-12-03T04:25:33.519Z,1007.92
2017-12-03T04:26:39.502Z,1007.93
2017-12-03T04:27:45.106Z,1007.98
2017-12-03T04:28:51.121Z,1007.97
2017-12-03T04:29:57.123Z,1007.95
2017-12-03T04:31:03.113Z,1007.96
2017-12-03T04:32:09.088Z,1007.79
2017-12-03T04:33:15.091Z,1007.81
2017-12-03T04:34:21.606Z,1007.90
2017-12-03T04:35:27.652Z,1007.84
2017-12-03T04:36:33.144Z,1007.84
2017-12-03T04:37:39.645Z,1007.82
2017-12-03T04:38:45.686Z,1007.76
2017-12-03T04:39:51.697Z,1007.75
2017-12-03T04:40:57.740Z,1007.82
2017-12-03T04:42:03.208Z,1007.84
2017-12-03T04:43:09.247Z,1007.86
2017-12-03T04:44:15.735Z,1007.85
2017-12-03T04:45:21.246Z,1007.76
2017-12-03T04:46:27.800Z,1007.87
2017-12-03T04:47:33.783Z,1007.82
2017-12-03T04:48:39.316Z,1007.90
2017-12-03T04:49:45.314Z,1007.79
2017-12-03T04:50:51.550Z,1007.80
2017-12-03T04:51:57.334Z,1007.80
2017-12-03T04:53:03.851Z,1007.82
2017-12-03T04:54:09.390Z,1007.80
2017-12-03T04:55:15.881Z,1007.76
2017-12-03T04:56:21.426Z,1007.72
2017-12-03T04:57:27.910Z,1007.86
2017-12-03T04:58:33.952Z,1007.83
2017-12-03T04:59:39.429Z,1007.92
2017-12-03T05:00:45.456Z,1007.78
2017-12-03T05:01:51.996Z,1007.77
2017-12-03T05:02:57.999Z,1007.67
2017-12-03T05:04:03.987Z,1007.79
2017-12-03T05:05:10.029Z,1007.74
2017-12-03T05:06:15.551Z,1007.84
2017-12-03T05:07:21.542Z,1007.75
2017-12-03T05:08:28.361Z,1007.69
2017-12-03T05:09:33.592Z,1007.84
2017-12-03T05:10:39.573Z,1007.86
2017-12-03T05:11:45.607Z,1007.83
2017-12-03T05:12:51.616Z,1007.82
2017-12-03T05:13:58.115Z,1007.73
2017-12-03T05:15:03.643Z,1007.84
2017-12-03T05:16:10.134Z,1007.77
2017-12-03T05:17:15.686Z,1007.81
2017-12-03T05:18:23.155Z,1007.84
2017-12-03T05:19:27.687Z,1007.80
2017-12-03T05:20:33.691Z,1007.79
2017-12-03T05:21:39.731Z,1007.77
2017-12-03T05:22:45.724Z,1007.79
2017-12-03T05:23:51.749Z,1007.79
2017-12-03T05:24:58.272Z,1007.82
2017-12-03T05:26:04.256Z,1007.78
2017-12-03T05:27:09.811Z,1007.79
2017-12-03T05:28:15.789Z,1007.85
2017-12-03T05:29:21.806Z,1007.87
2017-12-03T05:30:27.875Z,1007.84
2017-12-03T05:31:33.835Z,1007.78
2017-12-03T05:32:39.871Z,1007.84
2017-12-03T05:33:45.872Z,1007.88
2017-12-03T05:34:51.868Z,1007.83
2017-12-03T05:35:57.913Z,1007.87
2017-12-03T05:37:04.438Z,1007.84
2017-12-03T05:38:09.927Z,1007.81
2017-12-03T05:39:15.947Z,1007.80
2017-12-03T05:40:22.442Z,1007.79
2017-12-03T05:41:28.476Z,1007.83
2017-12-03T05:42:34.477Z,1007.73
2017-12-03T05:43:39.995Z,1007.79
2017-12-03T05:44:46.000Z,1007.75
2017-12-03T05:45:52.030Z,1007.84
2017-12-03T05:46:58.062Z,1007.85
2017-12-03T05:48:04.070Z,1007.80
2017-12-03T05:49:10.057Z,1007.88
2017-12-03T05:50:16.093Z,1007.78
2017-12-03T05:51:22.080Z,1007.78
2017-12-03T05:52:28.112Z,1007.83
2017-12-03T05:53:34.112Z,1007.74
2017-12-03T05:54:40.144Z,1007.73
2017-12-03T05:55:46.142Z,1007.76
2017-12-03T05:56:52.151Z,1007.66
2017-12-03T05:57:58.203Z,1007.67
2017-12-03T05:59:04.175Z,1007.69
2017-12-03T06:00:10.698Z,1007.76
2017-12-03T06:01:16.697Z,1007.65
2017-12-03T06:02:22.733Z,1007.64
2017-12-03T06:03:28.242Z,1007.64
2017-12-03T06:04:34.734Z,1007.58
2017-12-03T06:05:40.267Z,1007.66
2017-12-03T06:06:46.290Z,1007.63
2017-12-03T06:07:52.336Z,1007.53
2017-12-03T06:08:58.321Z,1007.54
2017-12-03T06:10:04.359Z,1007.69
2017-12-03T06:11:10.876Z,1007.57
2017-12-03T06:12:16.889Z,1007.62
2017-12-03T06:13:22.892Z,1007.59
2017-12-03T06:14:28.393Z,1007.64
2017-12-03T06:15:34.910Z,1007.58
2017-12-03T06:16:40.434Z,1007.64
2017-12-03T06:17:46.964Z,1007.65
2017-12-03T06:18:52.459Z,1007.63
2017-12-03T06:19:58.468Z,1007.60
2017-12-03T06:21:04.510Z,1007.58
2017-12-03T06:22:10.521Z,1007.58
2017-12-03T06:23:16.506Z,1007.62
2017-12-03T06:24:23.027Z,1007.63
2017-12-03T06:25:29.112Z,1007.52
2017-12-03T06:26:34.556Z,1007.60
2017-12-03T06:27:40.586Z,1007.60
2017-12-03T06:28:46.585Z,1007.52
2017-12-03T06:29:52.588Z,1007.57
2017-12-03T06:30:58.604Z,1007.51
2017-12-03T06:32:04.622Z,1007.58
2017-12-03T06:33:10.689Z,1007.60
2017-12-03T06:34:16.627Z,1007.58
2017-12-03T06:35:22.658Z,1007.60
2017-12-03T06:36:28.664Z,1007.66
2017-12-03T06:37:34.770Z,1007.59
2017-12-03T06:38:41.192Z,1007.62
2017-12-03T06:39:46.698Z,1007.64
2017-12-03T06:40:52.704Z,1007.58
2017-12-03T06:41:58.726Z,1007.52
2017-12-03T06:43:05.242Z,1007.55
2017-12-03T06:44:11.240Z,1007.45
2017-12-03T06:45:16.752Z,1007.52
2017-12-03T06:46:22.762Z,1007.49
2017-12-03T06:47:28.836Z,1007.53
2017-12-03T06:48:35.304Z,1007.49
2017-12-03T06:49:40.806Z,1007.50
2017-12-03T06:50:47.316Z,1007.55
2017-12-03T06:51:52.823Z,1007.56
2017-12-03T06:52:58.851Z,1007.57
2017-12-03T06:54:04.857Z,1007.66
2017-12-03T06:55:10.859Z,1007.58
2017-12-03T06:56:16.854Z,1007.59
2017-12-03T06:57:22.916Z,1007.59
2017-12-03T06:58:29.389Z,1007.66
2017-12-03T06:59:34.904Z,1007.59
2017-12-03T07:00:40.905Z,1007.56
2017-12-03T07:01:46.913Z,1007.50
2017-12-03T07:02:52.956Z,1007.49
2017-12-03T07:03:58.933Z,1007.53
2017-12-03T07:05:05.436Z,1007.53
2017-12-03T07:06:10.990Z,1007.55
2017-12-03T07:07:16.967Z,1007.56
2017-12-03T07:08:23.000Z,1007.54
2017-12-03T07:09:28.993Z,1007.61
2017-12-03T07:10:34.995Z,1007.54
2017-12-03T07:11:41.525Z,1007.58
2017-12-03T07:12:47.128Z,1007.55
2017-12-03T07:13:53.112Z,1007.55
2017-12-03T07:14:59.544Z,1007.50
2017-12-03T07:16:05.139Z,1007.45
2017-12-03T07:17:11.576Z,1007.61
2017-12-03T07:18:17.102Z,1007.57
2017-12-03T07:19:23.077Z,1007.63
2017-12-03T07:20:29.098Z,1007.59
2017-12-03T07:21:35.096Z,1007.68
2017-12-03T07:22:41.218Z,1007.74
2017-12-03T07:23:47.194Z,1007.70
2017-12-03T07:24:53.142Z,1007.70
2017-12-03T07:25:59.156Z,1007.78
2017-12-03T07:27:05.186Z,1007.77
2017-12-03T07:28:11.198Z,1007.85
2017-12-03T07:29:17.182Z,1007.88
2017-12-03T07:30:23.404Z,1007.86
2017-12-03T07:31:29.207Z,1007.83
2017-12-03T07:32:35.249Z,1007.87
2017-12-03T07:33:41.219Z,1007.78
2017-12-03T07:34:47.542Z,1007.86
2017-12-03T07:35:53.257Z,1007.87
2017-12-03T07:36:59.254Z,1007.87
2017-12-03T07:38:05.292Z,1007.90
2017-12-03T07:39:11.261Z,1007.93
2017-12-03T07:40:17.291Z,1007.81
2017-12-03T07:41:23.781Z,1007.91
2017-12-03T07:42:29.332Z,1007.90
2017-12-03T07:43:35.336Z,1007.84
2017-12-03T07:44:41.319Z,1007.90
2017-12-03T07:45:47.331Z,1007.90
2017-12-03T07:46:53.343Z,1007.86
2017-12-03T07:47:59.361Z,1007.83
2017-12-03T07:49:05.375Z,1007.86
2017-12-03T07:50:11.362Z,1007.84
2017-12-03T07:51:17.398Z,1007.84
2017-12-03T07:52:23.414Z,1007.89
2017-12-03T07:53:29.441Z,1007.81
2017-12-03T07:54:35.407Z,1007.90
2017-12-03T07:55:41.924Z,1007.95
2017-12-03T07:56:47.444Z,1007.88
2017-12-03T07:57:53.509Z,1007.97
2017-12-03T07:58:59.470Z,1007.89
2017-12-03T08:00:05.453Z,1007.88
2017-12-03T08:01:11.456Z,1007.88
2017-12-03T08:02:17.457Z,1007.81
2017-12-03T08:03:23.490Z,1007.80
2017-12-03T08:04:29.477Z,1007.86
2017-12-03T08:05:35.515Z,1007.87
2017-12-03T08:06:41.494Z,1007.83
2017-12-03T08:07:47.520Z,1007.88
2017-12-03T08:08:53.508Z,1007.93
2017-12-03T08:09:59.543Z,1007.88
2017-12-03T08:11:05.524Z,1007.90
2017-12-03T08:12:11.540Z,1007.93
2017-12-03T08:13:17.558Z,1007.81
2017-12-03T08:14:23.577Z,1007.85
2017-12-03T08:15:30.076Z,1007.91
2017-12-03T08:16:35.558Z,1007.83
2017-12-03T08:17:41.590Z,1007.87
2017-12-03T08:18:47.574Z,1007.89
2017-12-03T08:19:53.589Z,1007.81
2017-12-03T08:21:00.087Z,1007.86
2017-12-03T08:22:05.611Z,1007.83
2017-12-03T08:23:11.646Z,1007.96
2017-12-03T08:24:17.646Z,1007.79
2017-12-03T08:25:23.652Z,1007.76
2017-12-03T08:26:29.665Z,1007.84
2017-12-03T08:27:36.165Z,1007.76
2017-12-03T08:28:41.693Z,1007.92
2017-12-03T08:29:47.687Z,1007.93
2017-12-03T08:30:53.697Z,1007.82
2017-12-03T08:31:59.731Z,1007.86
2017-12-03T08:33:05.760Z,1007.89
2017-12-03T08:34:11.735Z,1007.90
2017-12-03T08:35:17.755Z,1007.92
2017-12-03T08:36:23.846Z,1007.97
2017-12-03T08:37:29.784Z,1007.86
2017-12-03T08:38:35.827Z,1007.91
2017-12-03T08:39:41.832Z,1007.88
2017-12-03T08:40:47.828Z,1007.79
2017-12-03T08:41:53.898Z,1007.95
2017-12-03T08:42:59.881Z,1008.00
2017-12-03T08:44:05.870Z,1007.97
2017-12-03T08:45:11.886Z,1008.07
2017-12-03T08:46:17.908Z,1008.05
2017-12-03T08:47:23.914Z,1007.99
2017-12-03T08:48:29.984Z,1007.94
2017-12-03T08:49:35.946Z,1008.08
2017-12-03T08:50:41.956Z,1008.13
2017-12-03T08:51:48.283Z,1008.02
2017-12-03T08:52:54.023Z,1008.01
2017-12-03T08:54:00.000Z,1008.00
2017-12-03T08:55:06.023Z,1007.97
2017-12-03T08:56:12.044Z,1007.97
2017-12-03T08:57:18.052Z,1008.00
2017-12-03T08:58:24.087Z,1008.03
2017-12-03T08:59:30.076Z,1007.99
2017-12-03T09:00:36.089Z,1008.00
2017-12-03T09:01:42.102Z,1008.03
2017-12-03T09:02:48.157Z,1008.04
2017-12-03T09:03:54.129Z,1008.03
2017-12-03T09:05:00.153Z,1007.95
2017-12-03T09:06:06.171Z,1007.96
2017-12-03T09:07:12.177Z,1007.89
2017-12-03T09:08:18.234Z,1007.87
2017-12-03T09:09:24.238Z,1007.93
2017-12-03T09:10:30.229Z,1007.83
2017-12-03T09:11:36.263Z,1007.96
2017-12-03T09:12:42.259Z,1007.90
2017-12-03T09:13:49.370Z,1007.90
2017-12-03T09:14:54.457Z,1007.93
2017-12-03T09:16:00.772Z,1007.89
2017-12-03T09:17:06.887Z,1007.84
2017-12-03T09:18:12.530Z,1007.86
2017-12-03T09:19:18.369Z,1007.83
2017-12-03T09:20:24.372Z,1007.84
2017-12-03T09:21:30.407Z,1007.84
2017-12-03T09:22:36.407Z,1007.92
2017-12-03T09:23:42.429Z,1007.85
2017-12-03T09:24:48.442Z,1007.75
2017-12-03T09:25:54.460Z,1007.90
2017-12-03T09:27:00.480Z,1007.84
2017-12-03T09:28:06.515Z,1007.86
2017-12-03T09:29:12.510Z,1007.79
2017-12-03T09:30:18.523Z,1007.90
2017-12-03T09:31:24.544Z,1007.89
2017-12-03T09:32:30.554Z,1007.85
2017-12-03T09:33:36.593Z,1007.87
2017-12-03T09:34:42.578Z,1007.86
2017-12-03T09:35:48.608Z,1007.87
2017-12-03T09:36:54.640Z,1007.93
2017-12-03T09:38:00.663Z,1007.86
2017-12-03T09:39:06.669Z,1007.84
2017-12-03T09:40:12.688Z,1007.90
2017-12-03T09:41:18.705Z,1007.95
2017-12-03T09:42:25.202Z,1007.89
2017-12-03T09:43:30.765Z,1007.91
2017-12-03T09:44:36.746Z,1007.77
2017-12-03T09:45:42.758Z,1007.73
2017-12-03T09:46:48.780Z,1007.88
2017-12-03T09:47:54.825Z,1007.81
2017-12-03T09:49:00.839Z,1007.79
2017-12-03T09:50:06.891Z,1007.85
2017-12-03T09:51:12.865Z,1007.84
2017-12-03T09:52:18.878Z,1007.88
2017-12-03T09:53:24.907Z,1007.84
2017-12-03T09:54:30.922Z,1007.89
2017-12-03T09:55:36.935Z,1007.80
2017-12-03T09:56:42.947Z,1007.82
2017-12-03T09:57:49.470Z,1007.81
2017-12-03T09:58:55.008Z,1007.82
2017-12-03T10:00:00.993Z,1007.75
2017-12-03T10:01:07.031Z,1007.63
2017-12-03T10:02:13.047Z,1007.75
2017-12-03T10:03:19.081Z,1007.70
2017-12-03T10:04:25.076Z,1007.77
2017-12-03T10:05:31.095Z,1007.85
2017-12-03T10:06:37.122Z,1007.85
2017-12-03T10:07:43.129Z,1007.77
2017-12-03T10:08:49.264Z,1007.72
2017-12-03T10:09:55.175Z,1007.76
2017-12-03T10:11:01.197Z,1007.76
2017-12-03T10:12:07.220Z,1007.72
2017-12-03T10:13:13.261Z,1007.79
2017-12-03T10:14:19.263Z,1007.60
2017-12-03T10:15:25.263Z,1007.78
2017-12-03T10:16:31.289Z,1007.63
2017-12-03T10:17:37.314Z,1007.65
2017-12-03T10:18:43.361Z,1007.64
2017-12-03T10:19:49.346Z,1007.64
2017-12-03T10:20:55.389Z,1007.64
2017-12-03T10:22:01.399Z,1007.60
2017-12-03T10:23:07.434Z,1007.68
2017-12-03T10:24:13.428Z,1007.65
2017-12-03T10:25:19.456Z,1007.63
2017-12-03T10:26:25.471Z,1007.62
2017-12-03T10:27:31.492Z,1007.60
2017-12-03T10:28:37.547Z,1007.62
2017-12-03T10:29:44.476Z,1007.56
2017-12-03T10:30:49.544Z,1007.67
2017-12-03T10:31:55.584Z,1007.68
2017-12-03T10:33:01.595Z,1007.58
2017-12-03T10:34:07.636Z,1007.63
2017-12-03T10:35:13.622Z,1007.56
2017-12-03T10:36:19.641Z,1007.61
2017-12-03T10:37:26.167Z,1007.55
2017-12-03T10:38:32.192Z,1007.50
2017-12-03T10:39:37.700Z,1007.52
2017-12-03T10:40:43.735Z,1007.48
2017-12-03T10:41:49.748Z,1007.48
2017-12-03T10:42:55.783Z,1007.45
2017-12-03T10:44:01.803Z,1007.47
2017-12-03T10:45:08.311Z,1007.54
2017-12-03T10:46:13.868Z,1007.48
2017-12-03T10:47:20.168Z,1007.28
2017-12-03T10:48:25.907Z,1007.44
2017-12-03T10:49:31.880Z,1007.40
2017-12-03T10:50:37.897Z,1007.40
2017-12-03T10:51:43.930Z,1007.32
2017-12-03T10:52:49.954Z,1007.41
2017-12-03T10:53:56.028Z,1007.38
2017-12-03T10:55:02.013Z,1007.41
2017-12-03T10:56:09.514Z,1007.47
2017-12-03T10:57:14.118Z,1007.37
2017-12-03T10:58:20.090Z,1007.41
2017-12-03T10:59:26.091Z,1007.46
2017-12-03T11:00:32.663Z,1007.32
2017-12-03T11:01:38.136Z,1007.31
2017-12-03T11:02:44.665Z,1007.33
2017-12-03T11:03:50.193Z,1007.29
2017-12-03T11:04:56.200Z,1007.31
2017-12-03T11:06:02.242Z,1007.26
2017-12-03T11:07:08.758Z,1007.27
2017-12-03T11:08:14.266Z,1007.22
2017-12-03T11:09:20.313Z,1007.18
2017-12-03T11:10:26.816Z,1007.33
2017-12-03T11:11:32.527Z,1007.17
2017-12-03T11:12:38.358Z,1007.31
2017-12-03T11:13:44.431Z,1007.18
2017-12-03T11:14:50.425Z,1007.23
2017-12-03T11:15:56.466Z,1007.11
2017-12-03T11:17:02.469Z,1007.21
2017-12-03T11:18:08.488Z,1007.14
2017-12-03T11:19:14.571Z,1007.07
2017-12-03T11:20:20.540Z,1007.11
2017-12-03T11:21:26.578Z,1007.11
2017-12-03T11:22:32.598Z,1007.07
2017-12-03T11:23:38.660Z,1007.03
2017-12-03T11:24:44.659Z,1007.03
2017-12-03T11:25:50.683Z,1007.08
2017-12-03T11:26:56.714Z,1007.04
2017-12-03T11:28:02.741Z,1007.08
2017-12-03T11:29:08.787Z,1006.95
2017-12-03T11:30:14.808Z,1007.02
2017-12-03T11:31:21.330Z,1006.96
2017-12-03T11:32:26.965Z,1007.02
2017-12-03T11:33:32.906Z,1006.91
2017-12-03T11:34:38.913Z,1007.08
2017-12-03T11:35:44.943Z,1007.01
2017-12-03T11:36:50.974Z,1006.94
2017-12-03T11:37:57.004Z,1006.98
2017-12-03T11:39:03.050Z,1006.90
2017-12-03T11:40:09.060Z,1006.92
2017-12-03T11:41:15.088Z,1006.96
2017-12-03T11:42:21.610Z,1006.85
2017-12-03T11:43:27.632Z,1006.98
2017-12-03T11:44:33.194Z,1006.91
2017-12-03T11:45:39.210Z,1006.95
2017-12-03T11:46:45.231Z,1006.90
2017-12-03T11:47:51.262Z,1006.70
2017-12-03T11:48:57.326Z,1006.89
2017-12-03T11:50:03.525Z,1006.72
2017-12-03T11:51:09.874Z,1006.75
2017-12-03T11:52:15.392Z,1006.75
2017-12-03T11:53:21.426Z,1006.74
2017-12-03T11:54:27.483Z,1006.79
2017-12-03T11:55:33.994Z,1006.73
2017-12-03T11:56:39.515Z,1006.73
2017-12-03T11:57:45.547Z,1006.70
2017-12-03T11:58:51.596Z,1006.77
2017-12-03T11:59:57.613Z,1006.89
2017-12-03T12:01:03.630Z,1006.78
2017-12-03T12:02:09.676Z,1006.74
2017-12-03T12:03:15.752Z,1006.80
2017-12-03T12:04:21.764Z,1006.92
2017-12-03T12:05:27.771Z,1006.75
2017-12-03T12:06:33.793Z,1006.76
2017-12-03T12:07:39.818Z,1006.69
2017-12-03T12:08:46.026Z,1006.67
2017-12-03T12:09:51.874Z,1006.73
2017-12-03T12:10:57.923Z,1006.69
2017-12-03T12:12:03.939Z,1006.70
2017-12-03T12:13:09.968Z,1006.68
2017-12-03T12:14:16.237Z,1006.63
2017-12-03T12:15:22.111Z,1006.65
2017-12-03T12:16:28.543Z,1006.75
2017-12-03T12:17:34.106Z,1006.67
2017-12-03T12:18:40.642Z,1006.58
2017-12-03T12:19:46.177Z,1006.59
2017-12-03T12:20:52.173Z,1006.57
2017-12-03T12:21:58.228Z,1006.60
2017-12-03T12:23:04.731Z,1006.57
2017-12-03T12:24:11.295Z,1006.55
2017-12-03T12:25:16.294Z,1006.54
2017-12-03T12:26:22.824Z,1006.53
2017-12-03T12:27:28.351Z,1006.56
2017-12-03T12:28:34.393Z,1006.55
2017-12-03T12:29:40.440Z,1006.56
2017-12-03T12:30:46.459Z,1006.54
2017-12-03T12:31:52.479Z,1006.67
2017-12-03T12:32:58.507Z,1006.65
2017-12-03T12:34:05.047Z,1006.71
2017-12-03T12:35:11.077Z,1006.61
2017-12-03T12:36:16.602Z,1006.64
2017-12-03T12:37:23.134Z,1006.69
2017-12-03T12:38:28.680Z,1006.57
2017-12-03T12:39:35.206Z,1006.48
2017-12-03T12:40:40.706Z,1006.52
2017-12-03T12:41:46.745Z,1006.43
2017-12-03T12:42:52.783Z,1006.47
2017-12-03T12:43:58.835Z,1006.38
2017-12-03T12:45:05.331Z,1006.57
2017-12-03T12:46:10.877Z,1006.41
2017-12-03T12:47:17.402Z,1006.45
2017-12-03T12:48:22.937Z,1006.38
2017-12-03T12:49:29.994Z,1006.42
2017-12-03T12:50:35.012Z,1006.46
2017-12-03T12:51:41.066Z,1006.50
2017-12-03T12:52:47.580Z,1006.45
2017-12-03T12:53:53.127Z,1006.52
2017-12-03T12:54:59.142Z,1006.41
2017-12-03T12:56:05.684Z,1006.36
2017-12-03T12:57:11.226Z,1006.54
2017-12-03T12:58:17.749Z,1006.40
2017-12-03T12:59:23.311Z,1006.34
2017-12-03T13:00:29.310Z,1006.32
2017-12-03T13:01:35.346Z,1006.34
2017-12-03T13:02:41.390Z,1006.39
2017-12-03T13:03:47.418Z,1006.41
2017-12-03T13:04:53.476Z,1006.34
2017-12-03T13:05:59.975Z,1006.36
2017-12-03T13:07:05.522Z,1006.17
2017-12-03T13:08:11.573Z,1006.27
2017-12-03T13:09:17.610Z,1006.20
2017-12-03T13:10:24.119Z,1006.19
2017-12-03T13:11:29.659Z,1006.27
2017-12-03T13:12:35.705Z,1006.15
2017-12-03T13:13:41.733Z,1006.13
2017-12-03T13:14:48.274Z,1006.14
2017-12-03T13:15:53.788Z,1006.14
2017-12-03T13:16:59.823Z,1006.17
2017-12-03T13:18:05.864Z,1006.20